sensor_id;sensor_type;location;lat;lon;timestamp;pressure;altitude;pressure_sealevel;temperature;humidity
929;BME280;451;47.988;7.842;2024-03-02T00:11:36;97301.56;;;5.11;100.00
929;BME280;451;47.988;7.842;2024-03-02T00:30:01;97312.41;;;5.39;100.00
929;BME280;451;47.988;7.842;2024-03-02T00:39:11;97303.78;;;5.39;100.00
929;BME280;451;47.988;7.842;2024-03-02T00:48:17;97314.41;;;5.21;100.00
929;BME280;451;47.988;7.842;2024-03-02T00:57:21;97301.88;;;5.08;100.00
929;BME280;451;47.988;7.842;2024-03-02T01:06:31;97251.81;;;4.74;100.00
929;BME280;451;47.988;7.842;2024-03-02T01:15:38;97242.69;;;4.78;100.00
929;BME280;451;47.988;7.842;2024-03-02T01:24:49;97250.97;;;4.81;100.00
929;BME280;451;47.988;7.842;2024-03-02T01:33:52;97308.69;;;5.25;100.00
929;BME280;451;47.988;7.842;2024-03-02T01:42:57;97300.25;;;5.15;100.00
929;BME280;451;47.988;7.842;2024-03-02T01:52:02;97311.63;;;5.14;100.00
929;BME280;451;47.988;7.842;2024-03-02T02:01:07;97295.03;;;5.07;100.00
929;BME280;451;47.988;7.842;2024-03-02T02:10:12;97297.31;;;4.94;100.00
929;BME280;451;47.988;7.842;2024-03-02T02:19:18;97256.97;;;4.98;100.00
929;BME280;451;47.988;7.842;2024-03-02T02:28:27;97264.41;;;5.25;100.00
929;BME280;451;47.988;7.842;2024-03-02T02:37:31;97251.28;;;5.58;100.00
929;BME280;451;47.988;7.842;2024-03-02T02:46:38;97250.94;;;5.61;100.00
929;BME280;451;47.988;7.842;2024-03-02T02:55:42;97226.63;;;5.30;100.00
929;BME280;451;47.988;7.842;2024-03-02T03:04:47;97241.38;;;5.45;100.00
929;BME280;451;47.988;7.842;2024-03-02T03:13:50;97239.94;;;5.43;100.00
929;BME280;451;47.988;7.842;2024-03-02T03:22:59;97203.56;;;5.18;100.00
929;BME280;451;47.988;7.842;2024-03-02T03:32:03;97221.31;;;5.62;100.00
929;BME280;451;47.988;7.842;2024-03-02T03:41:13;97219.00;;;5.59;100.00
929;BME280;451;47.988;7.842;2024-03-02T03:50:20;97233.50;;;5.61;100.00
929;BME280;451;47.988;7.842;2024-03-02T03:59:25;97179.16;;;5.03;100.00
929;BME280;451;47.988;7.842;2024-03-02T04:08:29;97203.66;;;5.25;100.00
929;BME280;451;47.988;7.842;2024-03-02T04:17:34;97248.91;;;5.79;98.31
929;BME280;451;47.988;7.842;2024-03-02T04:26:38;97241.78;;;5.65;98.20
929;BME280;451;47.988;7.842;2024-03-02T04:35:43;97249.84;;;5.47;98.78
929;BME280;451;47.988;7.842;2024-03-02T04:44:47;97259.22;;;5.73;97.07
929;BME280;451;47.988;7.842;2024-03-02T04:53:52;97260.88;;;6.04;95.22
929;BME280;451;47.988;7.842;2024-03-02T05:02:57;97254.31;;;6.08;94.44
929;BME280;451;47.988;7.842;2024-03-02T05:12:02;97227.50;;;6.23;91.23
929;BME280;451;47.988;7.842;2024-03-02T05:21:43;97261.09;;;6.48;89.93
929;BME280;451;47.988;7.842;2024-03-02T05:30:48;97260.63;;;6.68;88.82
929;BME280;451;47.988;7.842;2024-03-02T05:39:54;97262.75;;;6.64;88.11
929;BME280;451;47.988;7.842;2024-03-02T05:48:59;97234.25;;;6.77;85.85
929;BME280;451;47.988;7.842;2024-03-02T05:58:03;97260.44;;;7.21;84.31
929;BME280;451;47.988;7.842;2024-03-02T06:07:24;97253.28;;;6.86;86.82
929;BME280;451;47.988;7.842;2024-03-02T06:16:27;97253.03;;;6.96;88.19
929;BME280;451;47.988;7.842;2024-03-02T06:25:35;97212.75;;;6.90;86.64
929;BME280;451;47.988;7.842;2024-03-02T06:34:39;97244.03;;;7.13;87.00
929;BME280;451;47.988;7.842;2024-03-02T06:43:47;97242.25;;;7.28;86.26
929;BME280;451;47.988;7.842;2024-03-02T06:52:53;97229.25;;;7.20;86.31
929;BME280;451;47.988;7.842;2024-03-02T07:02:01;97238.03;;;7.42;85.50
929;BME280;451;47.988;7.842;2024-03-02T07:11:05;97237.63;;;7.45;86.90
929;BME280;451;47.988;7.842;2024-03-02T07:20:32;97252.13;;;7.77;85.14
929;BME280;451;47.988;7.842;2024-03-02T07:29:44;97226.66;;;8.00;83.95
929;BME280;451;47.988;7.842;2024-03-02T07:38:51;97221.94;;;8.10;82.48
929;BME280;451;47.988;7.842;2024-03-02T07:47:58;97245.75;;;8.51;80.98
929;BME280;451;47.988;7.842;2024-03-02T07:57:08;97232.84;;;8.99;77.72
929;BME280;451;47.988;7.842;2024-03-02T08:06:14;97198.69;;;9.20;75.05
929;BME280;451;47.988;7.842;2024-03-02T08:15:37;97235.13;;;9.77;72.60
929;BME280;451;47.988;7.842;2024-03-02T08:24:52;97228.00;;;10.19;71.59
929;BME280;451;47.988;7.842;2024-03-02T08:34:00;97221.44;;;10.49;70.80
929;BME280;451;47.988;7.842;2024-03-02T08:43:06;97163.22;;;10.59;69.00
929;BME280;451;47.988;7.842;2024-03-02T08:52:11;97220.97;;;11.38;68.21
929;BME280;451;47.988;7.842;2024-03-02T09:01:26;97210.34;;;11.84;67.22
929;BME280;451;47.988;7.842;2024-03-02T09:10:33;97156.31;;;12.06;63.02
929;BME280;451;47.988;7.842;2024-03-02T09:19:37;97186.84;;;13.01;60.04
929;BME280;451;47.988;7.842;2024-03-02T09:28:44;97200.19;;;13.49;58.28
929;BME280;451;47.988;7.842;2024-03-02T09:37:47;97171.94;;;13.68;54.40
929;BME280;451;47.988;7.842;2024-03-02T09:46:53;97185.13;;;14.04;53.80
929;BME280;451;47.988;7.842;2024-03-02T09:56:01;97173.69;;;14.52;51.85
929;BME280;451;47.988;7.842;2024-03-02T10:05:06;97149.16;;;14.45;51.77
929;BME280;451;47.988;7.842;2024-03-02T10:14:11;97154.16;;;15.00;52.15
929;BME280;451;47.988;7.842;2024-03-02T10:23:19;97144.75;;;15.04;50.11
929;BME280;451;47.988;7.842;2024-03-02T10:32:24;97148.84;;;15.00;50.11
929;BME280;451;47.988;7.842;2024-03-02T10:41:36;97141.38;;;15.20;50.01
929;BME280;451;47.988;7.842;2024-03-02T10:50:40;97130.19;;;15.18;49.49
929;BME280;451;47.988;7.842;2024-03-02T10:59:52;97131.47;;;15.27;48.92
929;BME280;451;47.988;7.842;2024-03-02T11:08:58;97118.78;;;15.41;48.54
929;BME280;451;47.988;7.842;2024-03-02T11:18:10;97109.19;;;15.51;47.75
929;BME280;451;47.988;7.842;2024-03-02T11:37:02;97100.09;;;16.32;47.28
929;BME280;451;47.988;7.842;2024-03-02T11:46:09;97063.13;;;16.26;46.72
929;BME280;451;47.988;7.842;2024-03-02T11:55:18;97055.91;;;17.10;49.61
929;BME280;451;47.988;7.842;2024-03-02T12:04:23;97040.44;;;16.51;46.78
929;BME280;451;47.988;7.842;2024-03-02T12:13:29;97028.59;;;17.14;46.64
929;BME280;451;47.988;7.842;2024-03-02T12:22:39;97027.97;;;17.07;45.78
929;BME280;451;47.988;7.842;2024-03-02T12:31:48;97003.97;;;17.46;45.06
929;BME280;451;47.988;7.842;2024-03-02T12:40:52;96997.84;;;17.67;41.99
929;BME280;451;47.988;7.842;2024-03-02T12:50:02;96982.00;;;17.77;41.92
929;BME280;451;47.988;7.842;2024-03-02T12:59:09;96973.72;;;17.73;39.98
929;BME280;451;47.988;7.842;2024-03-02T13:08:16;96962.91;;;18.17;39.73
929;BME280;451;47.988;7.842;2024-03-02T13:17:21;96936.44;;;18.00;40.58
929;BME280;451;47.988;7.842;2024-03-02T13:26:27;96956.69;;;18.06;40.73
929;BME280;451;47.988;7.842;2024-03-02T13:35:31;96913.72;;;17.56;41.47
929;BME280;451;47.988;7.842;2024-03-02T13:44:36;96941.81;;;17.20;41.87
929;BME280;451;47.988;7.842;2024-03-02T13:53:40;96925.25;;;16.86;41.73
929;BME280;451;47.988;7.842;2024-03-02T14:02:49;96933.00;;;16.71;43.49
929;BME280;451;47.988;7.842;2024-03-02T14:11:56;96912.94;;;17.28;43.87
929;BME280;451;47.988;7.842;2024-03-02T14:21:04;96914.72;;;17.50;42.88
929;BME280;451;47.988;7.842;2024-03-02T14:30:14;96919.28;;;16.57;45.38
929;BME280;451;47.988;7.842;2024-03-02T14:39:20;96911.44;;;16.07;46.35
929;BME280;451;47.988;7.842;2024-03-02T14:48:25;96875.81;;;15.64;46.79
929;BME280;451;47.988;7.842;2024-03-02T14:57:30;96898.13;;;15.85;46.41
929;BME280;451;47.988;7.842;2024-03-02T15:06:34;96884.22;;;15.95;46.47
929;BME280;451;47.988;7.842;2024-03-02T15:15:55;96876.13;;;15.85;45.81
929;BME280;451;47.988;7.842;2024-03-02T15:24:59;96857.00;;;15.83;45.84
929;BME280;451;47.988;7.842;2024-03-02T15:34:06;96821.50;;;15.84;47.33
929;BME280;451;47.988;7.842;2024-03-02T15:43:10;96815.78;;;16.30;47.59
929;BME280;451;47.988;7.842;2024-03-02T15:52:17;96810.25;;;16.15;47.08
929;BME280;451;47.988;7.842;2024-03-02T16:01:23;96789.22;;;16.74;47.91
929;BME280;451;47.988;7.842;2024-03-02T16:10:41;96746.91;;;16.40;47.58
929;BME280;451;47.988;7.842;2024-03-02T16:19:48;96780.44;;;15.64;48.82
929;BME280;451;47.988;7.842;2024-03-02T16:29:01;96774.19;;;15.20;49.38
929;BME280;451;47.988;7.842;2024-03-02T16:38:06;96815.19;;;15.34;49.52
929;BME280;451;47.988;7.842;2024-03-02T16:47:14;96801.63;;;14.98;50.73
929;BME280;451;47.988;7.842;2024-03-02T16:56:18;96799.91;;;14.46;52.11
929;BME280;451;47.988;7.842;2024-03-02T17:05:23;96798.81;;;14.07;53.05
929;BME280;451;47.988;7.842;2024-03-02T17:14:28;96802.88;;;13.75;53.76
929;BME280;451;47.988;7.842;2024-03-02T17:23:37;96809.63;;;13.13;57.95
929;BME280;451;47.988;7.842;2024-03-02T17:32:42;96792.47;;;12.50;62.18
929;BME280;451;47.988;7.842;2024-03-02T17:41:50;96786.84;;;12.17;64.96
929;BME280;451;47.988;7.842;2024-03-02T17:50:55;96815.78;;;11.81;68.36
929;BME280;451;47.988;7.842;2024-03-02T18:00:02;96827.34;;;11.12;70.18
929;BME280;451;47.988;7.842;2024-03-02T18:09:14;96815.75;;;10.88;70.56
929;BME280;451;47.988;7.842;2024-03-02T18:18:18;96803.69;;;10.49;72.75
929;BME280;451;47.988;7.842;2024-03-02T18:27:22;96779.94;;;10.62;73.55
929;BME280;451;47.988;7.842;2024-03-02T18:36:28;96742.34;;;10.93;70.81
929;BME280;451;47.988;7.842;2024-03-02T18:45:31;96745.47;;;11.02;70.96
929;BME280;451;47.988;7.842;2024-03-02T18:54:37;96769.16;;;11.02;70.24
929;BME280;451;47.988;7.842;2024-03-02T19:03:41;96763.41;;;10.86;71.33
929;BME280;451;47.988;7.842;2024-03-02T19:12:57;96754.09;;;10.59;71.18
929;BME280;451;47.988;7.842;2024-03-02T19:22:02;96778.13;;;10.63;72.55
929;BME280;451;47.988;7.842;2024-03-02T19:31:08;96802.66;;;10.50;73.63
929;BME280;451;47.988;7.842;2024-03-02T19:40:16;96803.50;;;9.86;76.94
929;BME280;451;47.988;7.842;2024-03-02T19:49:23;96822.47;;;9.88;80.12
929;BME280;451;47.988;7.842;2024-03-02T19:58:28;96830.59;;;9.80;83.12
929;BME280;451;47.988;7.842;2024-03-02T20:07:38;96804.13;;;9.75;79.13
929;BME280;451;47.988;7.842;2024-03-02T20:16:45;96834.78;;;9.81;79.66
929;BME280;451;47.988;7.842;2024-03-02T20:25:51;96830.38;;;9.75;80.21
929;BME280;451;47.988;7.842;2024-03-02T20:34:56;96825.09;;;9.88;78.06
929;BME280;451;47.988;7.842;2024-03-02T20:44:04;96785.59;;;9.63;78.65
929;BME280;451;47.988;7.842;2024-03-02T20:53:08;96780.25;;;9.96;79.23
929;BME280;451;47.988;7.842;2024-03-02T21:02:15;96777.53;;;9.65;81.01
929;BME280;451;47.988;7.842;2024-03-02T21:11:23;96731.78;;;9.41;82.82
929;BME280;451;47.988;7.842;2024-03-02T21:20:28;96758.19;;;9.46;85.29
929;BME280;451;47.988;7.842;2024-03-02T21:29:32;96754.31;;;9.62;87.40
929;BME280;451;47.988;7.842;2024-03-02T21:38:37;96729.66;;;8.99;90.11
929;BME280;451;47.988;7.842;2024-03-02T21:47:41;96703.38;;;9.18;90.17
929;BME280;451;47.988;7.842;2024-03-02T21:56:48;96711.84;;;9.20;89.89
929;BME280;451;47.988;7.842;2024-03-02T22:05:53;96731.25;;;8.80;93.23
929;BME280;451;47.988;7.842;2024-03-02T22:14:57;96730.66;;;8.98;91.95
929;BME280;451;47.988;7.842;2024-03-02T22:24:01;96672.00;;;8.39;93.08
929;BME280;451;47.988;7.842;2024-03-02T22:33:09;96715.50;;;8.40;96.48
929;BME280;451;47.988;7.842;2024-03-02T22:42:13;96718.75;;;8.42;98.03
929;BME280;451;47.988;7.842;2024-03-02T22:51:23;96700.94;;;8.25;98.58
929;BME280;451;47.988;7.842;2024-03-02T23:00:33;96702.56;;;8.26;98.79
929;BME280;451;47.988;7.842;2024-03-02T23:09:50;96676.34;;;7.86;99.68
929;BME280;451;47.988;7.842;2024-03-02T23:18:54;96706.97;;;7.99;100.00
929;BME280;451;47.988;7.842;2024-03-02T23:27:59;96685.22;;;8.05;99.95
929;BME280;451;47.988;7.842;2024-03-02T23:37:07;96710.22;;;8.21;100.00
929;BME280;451;47.988;7.842;2024-03-02T23:46:16;96674.38;;;8.21;99.19
929;BME280;451;47.988;7.842;2024-03-02T23:55:24;96684.47;;;8.24;100.00
